createdAt,value
2023-05-15T00:00:40.566Z,100958.41
2023-05-15T00:03:21.385Z,100960.44
2023-05-15T00:06:08.612Z,100969.88
2023-05-15T00:08:48.702Z,100975.91
2023-05-15T00:11:35.518Z,100971.66
2023-05-15T00:14:15.562Z,100969.72
2023-05-15T00:17:02.533Z,100961.06
2023-05-15T00:19:42.625Z,100969.06
2023-05-15T00:22:29.451Z,100969.72
2023-05-15T00:25:16.573Z,100955.19
2023-05-15T00:28:03.479Z,100956.84
2023-05-15T00:30:43.636Z,100962.38
2023-05-15T00:33:30.496Z,100975.28
2023-05-15T00:36:10.750Z,100970.19
2023-05-15T00:38:57.519Z,100948.84
2023-05-15T00:41:52.421Z,100959.91
2023-05-15T00:44:40.474Z,100960.53
2023-05-15T00:47:29.478Z,100963.34
2023-05-15T00:50:10.560Z,100949.78
2023-05-15T00:52:57.518Z,100958.41
2023-05-15T00:55:45.442Z,100956.47
2023-05-15T00:58:28.938Z,100969.47
2023-05-15T01:01:15.575Z,100961.66
2023-05-15T01:04:02.520Z,100954.03
2023-05-15T01:06:43.539Z,100957.63
2023-05-15T01:09:32.464Z,100953.69
2023-05-15T01:12:16.133Z,100954.19
2023-05-15T01:15:03.380Z,100945.50
2023-05-15T01:17:43.881Z,100941.50
2023-05-15T01:20:32.419Z,100922.72
2023-05-15T01:23:20.601Z,100929.41
2023-05-15T01:26:24.483Z,100935.13
2023-05-15T01:29:13.037Z,100938.88
2023-05-15T01:32:04.486Z,100938.72
2023-05-15T01:34:53.645Z,100930.41
2023-05-15T01:37:43.495Z,100921.66
2023-05-15T01:40:33.484Z,100917.03
2023-05-15T01:43:27.581Z,100912.69
2023-05-15T01:46:08.405Z,100889.38
2023-05-15T01:48:51.249Z,100891.31
2023-05-15T01:51:41.443Z,100878.91
2023-05-15T01:54:29.497Z,100870.59
2023-05-15T01:57:09.525Z,100862.13
2023-05-15T01:59:58.504Z,100868.84
2023-05-15T02:02:55.540Z,100867.66
2023-05-15T02:05:36.310Z,100865.09
2023-05-15T02:08:25.392Z,100866.38
2023-05-15T02:11:06.783Z,100864.94
2023-05-15T02:13:54.396Z,100867.34
2023-05-15T02:16:35.320Z,100863.63
2023-05-15T02:19:22.411Z,100867.66
2023-05-15T02:22:02.879Z,100856.78
2023-05-15T02:24:49.425Z,100858.91
2023-05-15T02:27:35.794Z,100859.38
2023-05-15T02:30:45.470Z,100860.34
2023-05-15T02:33:38.357Z,100876.47
2023-05-15T02:36:24.553Z,100865.72
2023-05-15T02:39:12.342Z,100866.84
2023-05-15T02:42:07.412Z,100857.25
2023-05-15T02:44:55.331Z,100849.09
2023-05-15T02:47:40.723Z,100851.69
2023-05-15T02:50:27.335Z,100848.63
2023-05-15T02:53:14.529Z,100846.81
2023-05-15T02:56:01.357Z,100847.28
2023-05-15T02:58:41.496Z,100848.09
2023-05-15T03:01:28.349Z,100846.66
2023-05-15T03:04:08.538Z,100845.19
2023-05-15T03:06:55.332Z,100855.91
2023-05-15T03:09:42.346Z,100851.78
2023-05-15T03:12:22.664Z,100841.38
2023-05-15T03:15:09.330Z,100843.19
2023-05-15T03:17:49.924Z,100855.84
2023-05-15T03:20:36.268Z,100840.38
2023-05-15T03:23:23.331Z,100835.00
2023-05-15T03:26:10.244Z,100833.19
2023-05-15T03:28:51.158Z,100821.59
2023-05-15T03:31:38.309Z,100833.03
2023-05-15T03:34:25.306Z,100814.72
2023-05-15T03:37:05.409Z,100831.38
2023-05-15T03:39:52.346Z,100832.81
2023-05-15T03:42:32.411Z,100839.00
2023-05-15T03:45:19.315Z,100844.72
2023-05-15T03:47:59.449Z,100832.50
2023-05-15T03:50:47.292Z,100839.69
2023-05-15T03:53:27.462Z,100833.16
2023-05-15T03:56:14.311Z,100836.50
2023-05-15T03:58:54.362Z,100840.56
2023-05-15T04:01:55.401Z,100848.97
2023-05-15T04:04:48.326Z,100841.94
2023-05-15T04:07:35.275Z,100858.38
2023-05-15T04:10:15.378Z,100855.59
2023-05-15T04:13:02.219Z,100860.03
2023-05-15T04:15:42.439Z,100863.47
2023-05-15T04:18:29.321Z,100861.09
2023-05-15T04:21:09.408Z,100850.38
2023-05-15T04:23:56.284Z,100844.66
2023-05-15T04:26:36.807Z,100838.34
2023-05-15T04:29:23.232Z,100852.97
2023-05-15T04:32:10.398Z,100868.47
2023-05-15T04:34:50.671Z,100860.41
2023-05-15T04:37:37.215Z,100867.72
2023-05-15T04:40:18.110Z,100875.53
2023-05-15T04:43:05.203Z,100884.66
2023-05-15T04:45:45.705Z,100885.19
2023-05-15T04:48:32.233Z,100891.38
2023-05-15T04:51:19.253Z,100891.03
2023-05-15T04:53:59.354Z,100889.19
2023-05-15T04:56:46.205Z,100891.06
2023-05-15T04:59:35.205Z,100887.66
2023-05-15T05:02:22.162Z,100898.13
2023-05-15T05:05:09.349Z,100894.50
2023-05-15T05:07:51.652Z,100890.13
2023-05-15T05:10:38.242Z,100893.69
2023-05-15T05:13:25.208Z,100884.22
2023-05-15T05:16:05.406Z,100880.19
2023-05-15T05:18:52.278Z,100868.31
2023-05-15T05:21:32.769Z,100869.19
2023-05-15T05:24:19.163Z,100850.75
2023-05-15T05:27:06.130Z,100854.69
2023-05-15T05:29:53.133Z,100862.16
2023-05-15T05:32:40.209Z,100875.97
2023-05-15T05:35:27.229Z,100871.91
2023-05-15T05:38:07.268Z,100858.69
2023-05-15T05:40:54.173Z,100870.19
2023-05-15T05:43:41.244Z,100869.13
2023-05-15T05:46:21.175Z,100867.59
2023-05-15T05:49:08.084Z,100870.47
2023-05-15T05:51:55.173Z,100868.50
2023-05-15T05:54:35.519Z,100866.34
2023-05-15T05:57:23.138Z,100864.25
2023-05-15T06:00:06.229Z,100873.38
2023-05-15T06:02:54.292Z,100885.06
2023-05-15T06:05:34.927Z,100886.06
2023-05-15T06:08:22.095Z,100888.91
2023-05-15T06:11:10.157Z,100886.09
2023-05-15T06:13:57.114Z,100890.72
2023-05-15T06:16:37.547Z,100887.53
2023-05-15T06:19:24.129Z,100888.28
2023-05-15T06:22:11.103Z,100889.09
2023-05-15T06:24:51.169Z,100883.91
2023-05-15T06:27:39.081Z,100879.28
2023-05-15T06:30:19.214Z,100882.16
2023-05-15T06:33:06.083Z,100890.31
2023-05-15T06:35:46.287Z,100886.25
2023-05-15T06:38:33.083Z,100866.91
2023-05-15T06:41:13.160Z,100867.22
2023-05-15T06:44:00.103Z,100857.97
2023-05-15T06:46:40.196Z,100858.16
2023-05-15T06:49:27.067Z,100872.91
2023-05-15T06:52:07.118Z,100874.81
2023-05-15T06:54:54.031Z,100878.44
2023-05-15T06:57:34.442Z,100876.63
2023-05-15T07:00:20.987Z,100858.06
2023-05-15T07:03:08.070Z,100862.69
2023-05-15T07:05:55.043Z,100855.88
2023-05-15T07:08:35.363Z,100851.47
2023-05-15T07:11:22.016Z,100846.66
2023-05-15T07:14:09.064Z,100837.91
2023-05-15T07:16:56.061Z,100836.56
2023-05-15T07:19:36.147Z,100835.41
2023-05-15T07:22:23.013Z,100835.44
2023-05-15T07:25:10.061Z,100835.97
2023-05-15T07:40:47.434Z,100886.09
2023-05-15T07:43:27.840Z,100858.53
2023-05-15T07:46:14.383Z,100853.03
2023-05-15T07:49:04.359Z,100848.47
2023-05-15T07:51:51.439Z,100848.47
2023-05-15T07:54:38.286Z,100851.56
2023-05-15T07:57:18.449Z,100848.91
2023-05-15T08:00:05.294Z,100839.81
2023-05-15T08:02:47.483Z,100821.53
2023-05-15T08:05:34.318Z,100831.00
2023-05-15T08:08:14.537Z,100842.56
2023-05-15T08:11:01.243Z,100839.06
2023-05-15T08:13:41.446Z,100846.03
2023-05-15T08:16:28.358Z,100844.84
2023-05-15T08:19:10.417Z,100857.31
2023-05-15T08:21:58.327Z,100851.78
2023-05-15T08:24:38.412Z,100846.78
2023-05-15T08:27:25.222Z,100854.81
2023-05-15T08:30:05.435Z,100849.44
2023-05-15T08:32:53.325Z,100847.16
2023-05-15T08:35:33.490Z,100852.25
2023-05-15T08:38:20.345Z,100848.84
2023-05-15T08:41:25.886Z,100844.69
2023-05-15T08:44:17.279Z,100836.91
2023-05-15T08:47:05.258Z,100837.00
2023-05-15T08:50:17.553Z,100825.41
2023-05-15T08:53:07.274Z,100836.19
2023-05-15T08:55:48.290Z,100828.34
2023-05-15T08:58:35.351Z,100826.72
2023-05-15T09:01:22.194Z,100811.94
2023-05-15T09:04:11.273Z,100824.66
2023-05-15T09:06:54.359Z,100827.72
2023-05-15T09:09:42.252Z,100817.69
2023-05-15T09:12:23.432Z,100814.56
2023-05-15T09:15:22.243Z,100820.06
2023-05-15T09:18:03.578Z,100818.41
2023-05-15T09:20:54.122Z,100835.97
2023-05-15T09:23:43.293Z,100842.66
2023-05-15T09:26:24.097Z,100829.22
2023-05-15T09:29:18.669Z,100823.16
2023-05-15T09:32:07.283Z,100822.78
2023-05-15T09:34:56.176Z,100820.38
2023-05-15T09:37:36.783Z,100818.56
2023-05-15T09:40:27.223Z,100819.34
2023-05-15T09:43:17.208Z,100810.50
2023-05-15T09:46:04.392Z,100808.47
2023-05-15T09:48:51.227Z,100818.16
2023-05-15T09:51:31.389Z,100810.56
2023-05-15T09:54:25.156Z,100807.56
2023-05-15T09:57:16.546Z,100811.69
2023-05-15T10:00:17.159Z,100802.63
2023-05-15T10:03:04.164Z,100793.91
2023-05-15T10:05:44.756Z,100796.25
2023-05-15T10:08:41.135Z,100797.41
2023-05-15T10:11:23.947Z,100777.19
2023-05-15T10:14:13.222Z,100792.06
2023-05-15T10:17:02.202Z,100795.16
2023-05-15T10:19:56.824Z,100794.56
2023-05-15T10:22:39.311Z,100782.00
2023-05-15T10:26:01.151Z,100786.88
2023-05-15T10:28:44.794Z,100773.41
2023-05-15T10:31:33.189Z,100770.13
2023-05-15T10:34:14.513Z,100772.38
2023-05-15T10:37:02.109Z,100773.47
2023-05-15T10:39:44.212Z,100782.16
2023-05-15T10:42:33.169Z,100788.13
2023-05-15T10:45:15.376Z,100781.47
2023-05-15T10:48:03.198Z,100790.81
2023-05-15T10:50:44.398Z,100777.91
2023-05-15T10:53:31.132Z,100783.13
2023-05-15T10:56:11.264Z,100783.25
2023-05-15T10:59:01.163Z,100779.91
2023-05-15T11:01:50.198Z,100792.81
2023-05-15T11:04:33.581Z,100784.72
2023-05-15T11:07:31.137Z,100790.38
2023-05-15T11:10:29.999Z,100789.97
2023-05-15T11:13:17.152Z,100782.50
2023-05-15T11:16:04.229Z,100785.34
2023-05-15T11:18:44.410Z,100767.38
2023-05-15T11:21:24.524Z,100765.75
2023-05-15T11:24:18.102Z,100752.56
2023-05-15T11:27:07.176Z,100766.16
2023-05-15T11:30:27.176Z,100756.75
2023-05-15T11:33:10.549Z,100761.88
2023-05-15T11:36:13.028Z,100754.06
2023-05-15T11:39:00.038Z,100761.00
2023-05-15T11:41:40.173Z,100762.84
2023-05-15T11:44:31.101Z,100752.22
2023-05-15T11:47:12.169Z,100760.97
2023-05-15T11:50:00.076Z,100753.09
2023-05-15T11:52:40.126Z,100749.63
2023-05-15T11:55:27.997Z,100741.69
2023-05-15T11:58:16.039Z,100748.03
2023-05-15T12:01:04.147Z,100752.44
2023-05-15T12:03:44.489Z,100741.88
2023-05-15T12:06:24.488Z,100733.69
2023-05-15T12:09:10.970Z,100737.03
2023-05-15T12:11:59.057Z,100731.47
2023-05-15T12:14:39.080Z,100727.34
2023-05-15T12:17:26.083Z,100727.78
2023-05-15T12:20:07.128Z,100726.72
2023-05-15T12:22:54.011Z,100716.47
2023-05-15T12:25:34.137Z,100731.03
2023-05-15T12:28:21.958Z,100715.94
2023-05-15T12:31:09.121Z,100724.66
2023-05-15T12:33:49.567Z,100725.88
2023-05-15T12:36:38.042Z,100730.13
2023-05-15T12:39:31.969Z,100738.75
2023-05-15T12:42:19.043Z,100744.31
2023-05-15T12:45:00.996Z,100732.06
2023-05-15T12:47:42.901Z,100745.88
2023-05-15T12:50:25.078Z,100740.91
2023-05-15T12:53:09.097Z,100748.03
2023-05-15T12:55:57.926Z,100749.19
2023-05-15T12:58:44.952Z,100738.38
2023-05-15T13:01:26.695Z,100736.22
2023-05-15T13:04:13.962Z,100718.88
2023-05-15T13:06:54.367Z,100727.09
2023-05-15T13:09:41.928Z,100722.69
2023-05-15T13:12:23.873Z,100711.25
2023-05-15T13:15:10.944Z,100716.09
2023-05-15T13:18:08.512Z,100713.75
2023-05-15T13:20:58.946Z,100715.28
2023-05-15T13:23:39.309Z,100719.22
2023-05-15T13:26:25.897Z,100718.53
2023-05-15T13:29:06.347Z,100711.34
2023-05-15T13:31:52.987Z,100714.88
2023-05-15T13:34:39.914Z,100713.63
2023-05-15T13:37:26.882Z,100710.59
2023-05-15T13:40:17.850Z,100698.69
2023-05-15T13:42:58.024Z,100707.44
2023-05-15T13:45:44.889Z,100692.16
2023-05-15T13:48:24.976Z,100704.22
2023-05-15T13:51:11.865Z,100692.25
2023-05-15T13:53:52.079Z,100697.91
2023-05-15T13:56:38.891Z,100699.22
2023-05-15T13:59:19.013Z,100696.06
2023-05-15T14:02:05.863Z,100704.06
2023-05-15T14:04:45.977Z,100713.31
2023-05-15T14:07:32.844Z,100718.38
2023-05-15T14:10:20.900Z,100727.53
2023-05-15T14:13:07.991Z,100725.78
2023-05-15T14:15:47.850Z,100745.03
2023-05-15T14:18:29.531Z,100743.69
2023-05-15T14:21:17.855Z,100746.00
2023-05-15T14:23:58.290Z,100741.75
2023-05-15T14:26:44.902Z,100732.63
2023-05-15T14:29:31.833Z,100740.44
2023-05-15T14:32:12.029Z,100735.47
2023-05-15T14:34:58.848Z,100734.66
2023-05-15T14:37:39.057Z,100739.50
2023-05-15T14:40:26.141Z,100724.34
2023-05-15T14:43:06.245Z,100732.72
2023-05-15T14:45:52.914Z,100722.66
2023-05-15T14:48:33.974Z,100730.97
2023-05-15T14:51:20.792Z,100728.66
2023-05-15T14:54:00.952Z,100727.44
2023-05-15T14:56:47.808Z,100743.19
2023-05-15T14:59:34.828Z,100731.00
2023-05-15T15:02:15.391Z,100723.59
2023-05-15T15:05:01.797Z,100733.00
2023-05-15T15:08:05.334Z,100732.22
2023-05-15T15:10:53.827Z,100729.41
2023-05-15T15:13:34.250Z,100732.41
2023-05-15T15:16:20.864Z,100731.53
2023-05-15T15:19:07.908Z,100722.94
2023-05-15T15:21:47.945Z,100725.16
2023-05-15T15:24:35.761Z,100727.44
2023-05-15T15:27:15.928Z,100733.16
2023-05-15T15:30:02.902Z,100736.19
2023-05-15T15:32:44.667Z,100730.34
2023-05-15T15:35:31.796Z,100727.53
2023-05-15T15:38:13.445Z,100721.22
2023-05-15T15:41:00.784Z,100735.63
2023-05-15T15:43:41.031Z,100735.19
2023-05-15T15:46:27.825Z,100735.00
2023-05-15T15:49:08.085Z,100727.56
2023-05-15T15:51:54.740Z,100740.97
2023-05-15T15:54:34.810Z,100736.25
2023-05-15T15:57:22.779Z,100741.69
2023-05-15T16:00:02.862Z,100746.00
2023-05-15T16:02:49.817Z,100740.34
2023-05-15T16:05:30.037Z,100753.44
2023-05-15T16:08:16.753Z,100746.72
2023-05-15T16:11:03.716Z,100746.28
2023-05-15T16:13:50.728Z,100751.13
2023-05-15T16:16:30.922Z,100739.94
2023-05-15T16:19:17.740Z,100727.63
2023-05-15T16:22:04.678Z,100721.28
2023-05-15T16:24:45.109Z,100724.44
2023-05-15T16:27:31.708Z,100717.03
2023-05-15T16:30:19.796Z,100721.78
2023-05-15T16:32:59.818Z,100715.28
2023-05-15T16:35:46.681Z,100726.03
2023-05-15T16:38:33.721Z,100720.84
2023-05-15T16:41:21.629Z,100719.69
2023-05-15T16:44:01.715Z,100731.75
2023-05-15T16:46:42.171Z,100720.38
2023-05-15T16:49:28.705Z,100714.81
2023-05-15T16:52:15.875Z,100716.44
2023-05-15T16:54:55.691Z,100719.44
2023-05-15T16:57:42.712Z,100713.56
2023-05-15T17:00:22.828Z,100708.94
2023-05-15T17:03:11.828Z,100706.50
2023-05-15T17:05:52.784Z,100699.66
2023-05-15T17:08:41.708Z,100700.50
2023-05-15T17:11:21.865Z,100701.75
2023-05-15T17:14:08.598Z,100698.25
2023-05-15T17:16:48.877Z,100699.91
2023-05-15T17:19:35.651Z,100720.84
2023-05-15T17:22:15.804Z,100714.69
2023-05-15T17:25:02.620Z,100720.44
2023-05-15T17:27:42.804Z,100723.13
2023-05-15T17:30:29.636Z,100715.94
2023-05-15T17:33:09.932Z,100718.97
2023-05-15T17:35:56.590Z,100719.06
2023-05-15T17:38:43.610Z,100698.59
2023-05-15T17:41:30.790Z,100685.38
2023-05-15T17:44:11.575Z,100676.13
2023-05-15T17:46:58.736Z,100659.81
2023-05-15T17:49:45.603Z,100665.38
2023-05-15T17:52:26.020Z,100672.78
2023-05-15T17:55:12.595Z,100701.34
2023-05-15T17:57:59.557Z,100717.06
2023-05-15T18:00:46.607Z,100726.22
2023-05-15T18:03:34.439Z,100715.47
2023-05-15T18:06:15.585Z,100713.94
2023-05-15T18:09:02.674Z,100698.09
2023-05-15T18:11:42.707Z,100693.38
2023-05-15T18:14:29.577Z,100686.28
2023-05-15T18:17:09.722Z,100698.91
2023-05-15T18:19:56.521Z,100708.50
2023-05-15T18:22:43.609Z,100702.16
2023-05-15T18:25:31.784Z,100694.50
2023-05-15T18:28:11.537Z,100693.69
2023-05-15T18:30:58.578Z,100700.38
2023-05-15T18:33:40.788Z,100704.06
2023-05-15T18:36:27.566Z,100687.16
2023-05-15T18:39:07.684Z,100691.91
2023-05-15T18:41:54.510Z,100694.69
2023-05-15T18:44:42.513Z,100693.88
2023-05-15T18:47:29.582Z,100692.59
2023-05-15T18:50:09.756Z,100692.59
2023-05-15T18:52:56.519Z,100689.00
2023-05-15T18:55:36.714Z,100687.06
2023-05-15T18:58:23.491Z,100690.97
2023-05-15T19:01:03.778Z,100696.06
2023-05-15T19:03:50.608Z,100700.69
2023-05-15T19:06:31.120Z,100713.06
2023-05-15T19:09:17.533Z,100709.59
2023-05-15T19:11:57.676Z,100716.44
2023-05-15T19:14:44.498Z,100707.63
2023-05-15T19:17:24.685Z,100719.66
2023-05-15T19:20:12.508Z,100716.56
2023-05-15T19:22:59.449Z,100728.31
2023-05-15T19:25:46.477Z,100729.63
2023-05-15T19:28:26.592Z,100735.19
2023-05-15T19:42:34.597Z,100729.81
2023-05-15T19:45:14.916Z,100737.25
2023-05-15T19:48:01.632Z,100741.59
2023-05-15T19:50:48.578Z,100750.50
2023-05-15T19:53:28.683Z,100746.25
2023-05-15T19:56:15.599Z,100745.47
2023-05-15T19:58:55.736Z,100749.88
2023-05-15T20:01:42.565Z,100741.53
2023-05-15T20:04:29.516Z,100742.44
2023-05-15T20:07:16.486Z,100730.66
2023-05-15T20:09:56.621Z,100730.03
2023-05-15T20:12:43.573Z,100736.00
2023-05-15T20:15:23.632Z,100721.28
2023-05-15T20:18:10.544Z,100720.19
2023-05-15T20:20:59.511Z,100713.72
2023-05-15T20:23:46.491Z,100700.50
2023-05-15T20:26:26.656Z,100689.63
2023-05-15T20:29:13.494Z,100677.34
2023-05-15T20:31:53.787Z,100680.69
2023-05-15T20:34:42.771Z,100681.75
2023-05-15T20:37:27.277Z,100679.44
2023-05-15T20:40:22.545Z,100683.59
2023-05-15T20:43:03.000Z,100686.38
2023-05-15T20:45:49.561Z,100682.66
2023-05-15T20:48:29.929Z,100678.13
2023-05-15T20:51:16.468Z,100675.22
2023-05-15T20:53:57.172Z,100681.72
2023-05-15T20:56:43.475Z,100678.13
2023-05-15T20:59:30.453Z,100673.59
2023-05-15T21:02:17.467Z,100670.56
2023-05-15T21:04:57.828Z,100674.75
2023-05-15T21:07:44.518Z,100669.88
2023-05-15T21:10:25.094Z,100659.34
2023-05-15T21:13:12.538Z,100670.78
2023-05-15T21:15:53.405Z,100665.22
2023-05-15T21:18:40.484Z,100660.69
2023-05-15T21:21:27.379Z,100653.41
2023-05-15T21:24:08.609Z,100653.19
2023-05-15T21:26:55.426Z,100653.56
2023-05-15T21:29:35.609Z,100653.06
2023-05-15T21:32:22.422Z,100657.47
2023-05-15T21:35:09.428Z,100651.44
2023-05-15T21:37:56.476Z,100658.88
2023-05-15T21:40:43.410Z,100665.09
2023-05-15T21:43:37.486Z,100663.06
2023-05-15T21:46:17.834Z,100659.44
2023-05-15T21:49:04.454Z,100665.91
2023-05-15T21:51:51.521Z,100665.22
2023-05-15T21:54:31.497Z,100666.31
2023-05-15T21:57:12.236Z,100670.63
2023-05-15T21:59:59.491Z,100659.41
2023-05-15T22:02:39.933Z,100655.56
2023-05-15T22:05:26.434Z,100650.75
2023-05-15T22:08:06.774Z,100648.09
2023-05-15T22:10:53.378Z,100645.66
2023-05-15T22:13:40.428Z,100643.22
2023-05-15T22:16:20.623Z,100642.34
2023-05-15T22:19:08.801Z,100636.81
2023-05-15T22:21:58.363Z,100648.94
2023-05-15T22:24:38.730Z,100638.13
2023-05-15T22:27:25.405Z,100624.44
2023-05-15T22:30:06.869Z,100624.44
2023-05-15T22:32:53.409Z,100627.34
2023-05-15T22:35:40.353Z,100627.25
2023-05-15T22:38:27.388Z,100627.88
2023-05-15T22:41:14.691Z,100631.09
2023-05-15T22:43:54.372Z,100628.06
2023-05-15T22:46:34.816Z,100629.84
2023-05-15T22:49:25.479Z,100632.47
2023-05-15T22:52:14.049Z,100627.75
2023-05-15T22:54:54.477Z,100626.38
2023-05-15T22:57:41.714Z,100620.38
2023-05-15T23:00:28.706Z,100611.78
2023-05-15T23:03:15.438Z,100612.97
2023-05-15T23:06:02.330Z,100600.59
2023-05-15T23:08:42.765Z,100591.44
2023-05-15T23:11:29.334Z,100585.22
2023-05-15T23:14:16.371Z,100577.22
2023-05-15T23:16:56.409Z,100577.34
2023-05-15T23:19:43.363Z,100575.00
2023-05-15T23:22:23.582Z,100565.59
2023-05-15T23:25:11.331Z,100570.56
2023-05-15T23:27:58.336Z,100573.47
2023-05-15T23:30:38.748Z,100580.34
2023-05-15T23:33:25.360Z,100592.59
2023-05-15T23:36:06.296Z,100596.41
2023-05-15T23:38:53.279Z,100582.53
2023-05-15T23:41:47.290Z,100569.22
2023-05-15T23:44:27.754Z,100570.38
2023-05-15T23:47:14.331Z,100579.34
2023-05-15T23:50:01.309Z,100576.31
2023-05-15T23:52:41.516Z,100578.41
2023-05-15T23:55:28.308Z,100576.13
2023-05-15T23:58:15.263Z,100565.16
